Time;durP1;ratioP1;P1;durP2;ratioP2;P2;SDS_P1;SDS_P2;PMS_P1;PMS_P2;Temp;Humidity;BMP_temperature;BMP_pressure;BME280_temperature;BME280_humidity;BME280_pressure;Samples;Min_cycle;Max_cycle;Signal;HPM_P1;HPM_P2
2022/03/24 00:00:30;;;;;;;34.55;16.52;;;;;;;7.90;38.98;101373.53;5001701;28;20512;-71
2022/03/24 00:02:56;;;;;;;40.20;20.92;;;;;;;7.82;39.31;101373.34;5002897;28;20526;-71
2022/03/24 00:05:21;;;;;;;30.73;18.25;;;;;;;7.57;39.46;101349.16;4984246;28;20466;-71
2022/03/24 00:07:47;;;;;;;39.08;17.98;;;;;;;7.42;40.90;101358.28;4984091;28;20061;-71
2022/03/24 00:10:13;;;;;;;38.58;21.15;;;;;;;7.65;40.55;101367.63;5000631;28;20045;-73
2022/03/24 00:12:39;;;;;;;34.05;19.70;;;;;;;7.57;40.94;101345.66;4985570;28;20041;-73
2022/03/24 00:15:06;;;;;;;29.83;20.45;;;;;;;7.46;41.68;101354.91;4998592;28;20074;-73
2022/03/24 00:17:33;;;;;;;36.72;20.25;;;;;;;7.75;40.82;101325.25;5002049;28;20037;-71
2022/03/24 00:19:59;;;;;;;34.00;20.92;;;;;;;7.54;41.38;101322.94;5000446;28;20033;-71
2022/03/24 00:22:24;;;;;;;38.20;19.55;;;;;;;7.64;41.54;101320.59;4998655;28;20073;-71
2022/03/24 00:24:50;;;;;;;35.03;20.75;;;;;;;7.69;41.72;101303.31;5002102;28;20030;-70
2022/03/24 00:27:15;;;;;;;42.10;21.45;;;;;;;7.75;41.90;101325.25;5001905;28;20064;-70
2022/03/24 00:29:45;;;;;;;32.25;22.60;;;;;;;7.61;42.17;101324.00;5001251;28;20081;-70
2022/03/24 00:32:11;;;;;;;38.90;23.58;;;;;;;7.69;42.64;101329.44;5000799;28;20046;-71
2022/03/24 00:34:37;;;;;;;38.20;24.38;;;;;;;7.53;42.74;101299.41;4996097;28;20053;-71
2022/03/24 00:37:04;;;;;;;41.42;24.65;;;;;;;7.60;42.78;101336.16;4999924;28;20037;-71
2022/03/24 00:39:33;;;;;;;44.45;24.13;;;;;;;7.62;42.94;101325.75;5001736;28;20075;-71
2022/03/24 00:42:04;;;;;;;36.20;23.48;;;;;;;7.37;43.56;101293.78;5000761;28;20501;-71
2022/03/24 00:44:30;;;;;;;38.97;24.30;;;;;;;7.51;43.76;101309.78;5000240;28;20065;-71
2022/03/24 00:46:55;;;;;;;46.28;26.33;;;;;;;7.43;44.44;101300.00;4972497;28;20061;-70
2022/03/24 00:49:21;;;;;;;40.50;27.23;;;;;;;7.34;44.24;101287.56;5002227;28;20042;-71
2022/03/24 00:51:48;;;;;;;37.72;22.45;;;;;;;6.97;45.23;101290.03;5001497;28;20175;-71
2022/03/24 00:54:16;;;;;;;61.05;27.70;;;;;;;7.31;44.93;101290.13;5001789;28;21426;-71
2022/03/24 00:56:42;;;;;;;40.83;24.98;;;;;;;7.12;45.06;101267.84;4999741;28;20040;-71
2022/03/24 00:59:09;;;;;;;49.35;27.80;;;;;;;7.30;45.11;101283.09;5001407;28;20034;-73
2022/03/24 01:01:34;;;;;;;44.92;27.27;;;;;;;7.23;45.10;101263.78;4998308;28;20351;-71
2022/03/24 01:04:00;;;;;;;40.85;24.92;;;;;;;7.11;45.48;101266.06;5001111;28;20034;-70
2022/03/24 01:06:26;;;;;;;39.70;27.20;;;;;;;7.10;45.53;101256.47;5001148;28;20100;-71
2022/03/24 01:08:52;;;;;;;44.13;23.63;;;;;;;7.27;45.65;101276.09;5000798;28;20121;-71
2022/03/24 01:11:18;;;;;;;34.63;24.38;;;;;;;7.25;45.66;101272.53;5000240;28;20053;-71
2022/03/24 01:13:44;;;;;;;47.72;25.92;;;;;;;7.00;46.30;101249.22;5000829;28;20045;-71
2022/03/24 01:16:10;;;;;;;41.88;23.63;;;;;;;7.03;46.54;101252.81;5001460;28;20038;-71
2022/03/24 01:18:37;;;;;;;45.63;24.85;;;;;;;6.97;46.66;101248.28;5001788;28;20458;-71
2022/03/24 01:21:07;;;;;;;45.92;24.30;;;;;;;7.05;46.47;101245.91;5000264;28;20129;-71
2022/03/24 01:23:33;;;;;;;46.80;23.77;;;;;;;6.98;46.93;101238.75;5000036;28;20510;-71
2022/03/24 01:26:00;;;;;;;43.47;24.08;;;;;;;7.03;46.62;101239.75;5001289;28;20081;-71
2022/03/24 01:28:27;;;;;;;38.20;22.52;;;;;;;7.04;46.79;101253.69;4998124;28;20120;-71
2022/03/24 01:30:53;;;;;;;37.50;20.90;;;;;;;6.88;46.81;101208.00;4999669;28;20091;-71
2022/03/24 01:33:18;;;;;;;36.67;22.95;;;;;;;6.88;47.19;101216.75;5000308;28;20505;-71
2022/03/24 01:35:44;;;;;;;32.08;21.77;;;;;;;6.89;47.09;101215.00;4999395;28;20045;-72
2022/03/24 01:38:10;;;;;;;42.15;21.88;;;;;;;6.79;47.34;101212.97;4998311;28;20054;-72
2022/03/24 01:40:37;;;;;;;48.03;24.50;;;;;;;6.94;47.29;101216.91;4999985;28;20473;-72
2022/03/24 01:43:02;;;;;;;44.50;23.33;;;;;;;6.95;47.55;101230.81;5000697;28;20033;-72
2022/03/24 01:45:28;;;;;;;39.45;24.05;;;;;;;6.70;47.80;101209.28;5000618;28;20463;-70
2022/03/24 01:47:53;;;;;;;42.42;22.90;;;;;;;6.68;47.90;101204.84;4998133;28;20034;-70
2022/03/24 01:50:19;;;;;;;27.60;19.67;;;;;;;6.59;48.49;101199.38;5000338;28;20044;-72
2022/03/24 01:52:45;;;;;;;33.90;23.13;;;;;;;6.30;48.80;101204.63;4999099;28;20042;-72
2022/03/24 01:55:13;;;;;;;34.92;21.75;;;;;;;6.27;48.79;101196.69;4999260;28;20058;-73
2022/03/24 01:57:41;;;;;;;41.92;22.20;;;;;;;6.52;49.19;101217.44;4999152;28;20036;-70
2022/03/24 02:00:09;;;;;;;32.63;21.70;;;;;;;6.64;48.88;101214.31;4998762;28;20050;-72
2022/03/24 02:02:35;;;;;;;42.75;25.23;;;;;;;6.63;48.58;101222.09;4999778;28;20042;-72
2022/03/24 02:05:01;;;;;;;33.55;22.08;;;;;;;6.35;49.03;101200.44;5000641;28;20069;-72
2022/03/24 02:07:26;;;;;;;36.45;22.58;;;;;;;6.44;48.91;101207.63;5000455;28;20069;-72
2022/03/24 02:09:52;;;;;;;27.25;19.80;;;;;;;6.49;49.24;101227.78;5000784;28;20394;-72
2022/03/24 02:12:17;;;;;;;39.85;19.80;;;;;;;6.31;49.29;101180.31;5001484;28;20064;-71
2022/03/24 02:14:43;;;;;;;42.55;21.45;;;;;;;6.59;48.87;101202.84;4999286;28;20125;-72
2022/03/24 02:17:09;;;;;;;37.20;21.48;;;;;;;6.52;48.99;101207.00;5001116;28;20049;-70
2022/03/24 02:19:36;;;;;;;28.98;19.42;;;;;;;6.47;49.19;101179.94;5000200;28;20033;-70
2022/03/24 02:22:15;;;;;;;30.20;18.48;;;;;;;6.63;49.12;101183.88;4998683;28;20028;-70
2022/03/24 02:24:42;;;;;;;34.45;19.92;;;;;;;6.66;48.91;101183.06;4998700;28;20042;-71
2022/03/24 02:27:08;;;;;;;40.72;18.63;;;;;;;6.82;48.84;101208.75;4999470;28;20050;-70
2022/03/24 02:29:35;;;;;;;30.55;19.70;;;;;;;6.75;48.66;101196.38;4998907;28;20509;-70
2022/03/24 02:32:02;;;;;;;37.28;18.67;;;;;;;6.60;48.79;101167.22;4999063;28;20041;-70
2022/03/24 02:34:37;;;;;;;33.03;17.85;;;;;;;6.55;48.85;101154.06;4996096;28;20046;-70
2022/03/24 02:37:17;;;;;;;39.72;19.08;;;;;;;6.71;49.36;101203.19;4999849;28;20145;-71
2022/03/24 02:39:45;;;;;;;37.97;23.02;;;;;;;6.45;49.81;101186.81;5000638;28;20052;-71
2022/03/24 02:42:16;;;;;;;36.80;19.73;;;;;;;6.42;49.75;101186.72;4984759;28;20061;-70
2022/03/24 02:44:50;;;;;;;39.67;20.38;;;;;;;6.31;49.68;101175.09;4983760;28;20051;-71
2022/03/24 02:47:16;;;;;;;38.13;19.55;;;;;;;6.47;49.96;101195.56;4985945;28;20050;-70
2022/03/24 02:49:43;;;;;;;29.10;17.90;;;;;;;6.32;49.98;101192.50;4985035;28;20053;-70
2022/03/24 02:52:09;;;;;;;33.33;17.65;;;;;;;6.26;50.43;101192.31;4986033;28;20049;-70
2022/03/24 02:54:36;;;;;;;25.60;20.08;;;;;;;6.37;49.80;101177.00;5000278;28;20682;-71
2022/03/24 02:57:02;;;;;;;29.88;18.10;;;;;;;6.50;49.89;101197.38;4997660;28;20065;-71
2022/03/24 02:59:28;;;;;;;38.85;18.13;;;;;;;6.24;49.58;101160.13;4999569;28;20034;-72
2022/03/24 03:01:55;;;;;;;30.20;19.58;;;;;;;6.34;49.77;101202.16;4997115;28;20038;-71
2022/03/24 03:04:21;;;;;;;32.90;19.35;;;;;;;6.21;50.27;101175.69;4998381;28;22454;-72
2022/03/24 03:06:47;;;;;;;34.83;19.17;;;;;;;6.00;50.54;101168.97;5000539;28;20037;-71
2022/03/24 03:09:15;;;;;;;32.33;19.77;;;;;;;6.13;49.91;101176.34;5000062;28;21895;-71
2022/03/24 03:11:43;;;;;;;30.88;18.05;;;;;;;6.03;50.40;101176.88;4998810;28;20038;-71
2022/03/24 03:14:10;;;;;;;30.33;19.63;;;;;;;6.26;50.10;101184.50;4998970;28;20053;-71
2022/03/24 03:16:36;;;;;;;26.92;17.63;;;;;;;5.86;50.82;101183.25;4997906;28;20034;-71
2022/03/24 03:19:01;;;;;;;31.58;19.27;;;;;;;5.94;50.46;101166.16;4997160;28;20370;-71
2022/03/24 03:21:27;;;;;;;30.75;18.25;;;;;;;6.12;50.32;101195.38;4998941;28;20068;-71
2022/03/24 03:23:52;;;;;;;29.50;19.63;;;;;;;6.03;50.13;101181.19;4998765;28;20034;-72
2022/03/24 03:26:19;;;;;;;49.38;18.88;;;;;;;5.87;50.66;101162.44;5001896;28;20116;-72
2022/03/24 03:28:45;;;;;;;34.83;19.13;;;;;;;5.61;51.16;101163.34;5000487;28;20061;-71
2022/03/24 03:31:10;;;;;;;27.67;18.83;;;;;;;5.76;51.69;101182.09;5001712;28;20379;-71
2022/03/24 03:33:36;;;;;;;28.98;19.10;;;;;;;5.60;52.02;101175.50;5002436;28;20018;-71
2022/03/24 03:36:03;;;;;;;36.10;21.92;;;;;;;5.50;51.89;101161.31;4998506;28;20038;-71
2022/03/24 03:38:30;;;;;;;35.72;20.42;;;;;;;5.61;52.04;101181.56;5001639;28;20085;-71
2022/03/24 03:40:56;;;;;;;30.40;19.63;;;;;;;5.57;52.73;101197.91;5002073;28;20038;-71
2022/03/24 03:43:22;;;;;;;39.20;20.27;;;;;;;5.55;53.40;101192.69;5000050;28;20045;-71
2022/03/24 03:45:48;;;;;;;34.03;20.98;;;;;;;5.44;53.38;101155.00;5000658;28;20423;-71
2022/03/24 03:48:14;;;;;;;33.33;20.83;;;;;;;5.32;53.58;101181.50;5002686;28;20018;-71
2022/03/24 03:50:41;;;;;;;36.75;20.13;;;;;;;5.34;53.35;101158.13;5002023;28;20517;-71
2022/03/24 03:53:08;;;;;;;43.58;23.75;;;;;;;5.52;53.03;101166.53;5002971;28;20132;-71
2022/03/24 03:55:35;;;;;;;41.08;21.55;;;;;;;5.52;52.76;101174.34;5001886;28;20037;-71
2022/03/24 03:58:01;;;;;;;43.60;21.45;;;;;;;5.31;53.15;101182.31;5000608;28;20025;-71
2022/03/24 04:03:11;;;;;;;40.58;20.95;;;;;;;5.32;52.97;101183.22;5002986;28;20064;-71
2022/03/24 04:05:37;;;;;;;32.67;20.13;;;;;;;5.19;53.20;101161.09;5000864;28;20471;-72
2022/03/24 04:08:03;;;;;;;28.98;17.85;;;;;;;5.18;53.22;101167.16;5002702;28;20085;-71
2022/03/24 04:10:30;;;;;;;32.47;20.33;;;;;;;5.33;52.82;101166.78;5000922;28;20041;-71
2022/03/24 04:12:58;;;;;;;36.97;20.33;;;;;;;5.33;52.74;101172.84;5001250;28;20038;-71
2022/03/24 04:15:24;;;;;;;44.10;20.15;;;;;;;5.23;53.48;101170.78;5001274;28;20057;-71
2022/03/24 04:17:53;;;;;;;29.55;18.65;;;;;;;5.18;53.18;101173.22;5000264;28;20111;-71
2022/03/24 04:20:23;;;;;;;41.42;21.33;;;;;;;5.13;53.77;101156.59;5001784;28;20074;-71
2022/03/24 04:22:50;;;;;;;36.00;21.23;;;;;;;5.08;53.86;101165.97;5003055;28;20092;-71
2022/03/24 04:25:20;;;;;;;33.10;20.33;;;;;;;4.69;53.81;101135.13;5001610;28;20034;-71
2022/03/24 04:27:47;;;;;;;28.52;19.27;;;;;;;4.91;53.80;101133.25;5001372;28;20100;-71
2022/03/24 04:30:12;;;;;;;28.10;20.45;;;;;;;4.83;53.74;101156.41;5002465;28;20036;-71
2022/03/24 04:32:39;;;;;;;32.30;21.05;;;;;;;4.68;54.03;101132.44;5001783;28;20042;-71
2022/03/24 04:35:06;;;;;;;31.02;21.42;;;;;;;4.87;54.18;101176.50;5001822;28;20080;-71
2022/03/24 04:37:32;;;;;;;32.72;18.50;;;;;;;4.54;54.03;101157.94;5000216;28;20505;-71
2022/03/24 04:39:58;;;;;;;28.35;21.15;;;;;;;4.54;54.15;101142.34;5001277;28;20029;-71
2022/03/24 04:42:23;;;;;;;32.75;19.00;;;;;;;5.13;53.41;101166.09;5000748;28;20053;-71
2022/03/24 04:44:49;;;;;;;31.00;20.13;;;;;;;4.88;53.81;101157.44;5000226;28;20172;-71
2022/03/24 04:47:15;;;;;;;33.13;21.73;;;;;;;4.94;53.44;101172.38;5000449;28;20048;-71
2022/03/24 04:49:41;;;;;;;35.63;21.08;;;;;;;4.86;53.40;101131.38;5001077;28;20054;-72
2022/03/24 04:52:08;;;;;;;42.35;21.83;;;;;;;4.74;53.68;101128.38;4999759;28;20034;-71
2022/03/24 04:54:34;;;;;;;34.58;20.60;;;;;;;4.99;53.09;101153.50;5002141;28;20527;-71
2022/03/24 04:56:59;;;;;;;36.47;20.88;;;;;;;5.06;53.41;101167.63;5000635;28;20367;-72
2022/03/24 04:59:25;;;;;;;44.60;21.13;;;;;;;5.19;53.49;101171.50;5000162;28;20033;-71
2022/03/24 05:01:51;;;;;;;33.88;21.67;;;;;;;5.10;53.51;101173.78;5001398;28;20119;-71
2022/03/24 05:04:17;;;;;;;44.42;22.20;;;;;;;5.10;53.47;101171.19;5001135;28;20745;-71
2022/03/24 05:06:42;;;;;;;37.78;22.27;;;;;;;5.14;52.78;101140.13;5001795;28;20030;-72
2022/03/24 05:09:09;;;;;;;29.20;17.63;;;;;;;5.46;52.41;101145.53;5000552;28;20026;-71
2022/03/24 05:11:35;;;;;;;34.72;22.10;;;;;;;5.39;51.88;101156.56;5000480;28;20041;-71
2022/03/24 05:14:01;;;;;;;39.58;22.33;;;;;;;5.44;52.00;101136.78;5000448;28;20049;-72
2022/03/24 05:16:28;;;;;;;34.05;22.42;;;;;;;5.50;51.16;101143.09;4999687;28;20373;-72
2022/03/24 05:18:54;;;;;;;27.00;18.52;;;;;;;5.66;51.23;101164.38;4999583;28;20038;-71
2022/03/24 05:21:19;;;;;;;45.03;19.42;;;;;;;5.74;50.77;101160.31;4982265;28;20022;-71
2022/03/24 05:23:45;;;;;;;40.10;20.48;;;;;;;5.65;50.92;101149.59;4999050;28;20050;-71
2022/03/24 05:26:10;;;;;;;30.90;20.48;;;;;;;5.75;50.67;101166.41;5000395;28;20049;-71
2022/03/24 05:28:36;;;;;;;36.08;23.25;;;;;;;5.94;49.71;101150.53;5000767;28;20441;-72
2022/03/24 05:31:02;;;;;;;29.35;18.98;;;;;;;6.18;48.94;101155.63;4998030;28;20037;-71
2022/03/24 05:33:27;;;;;;;28.15;19.33;;;;;;;6.42;48.92;101165.00;5000791;28;20030;-71
2022/03/24 05:35:53;;;;;;;31.10;19.00;;;;;;;6.25;49.39;101160.19;4996276;28;20033;-72
2022/03/24 05:38:18;;;;;;;31.00;19.65;;;;;;;6.09;48.85;101131.91;4999796;28;20413;-73
2022/03/24 05:40:44;;;;;;;34.78;19.98;;;;;;;6.48;48.33;101158.22;5001261;28;20058;-73
2022/03/24 05:43:10;;;;;;;27.83;19.80;;;;;;;6.59;47.67;101142.00;4999380;28;20049;-72
2022/03/24 05:45:36;;;;;;;29.25;19.63;;;;;;;6.70;47.99;101151.03;5000967;28;20034;-73
2022/03/24 05:48:02;;;;;;;32.75;19.30;;;;;;;7.33;47.03;101153.56;4999632;28;20054;-73
2022/03/24 05:50:29;;;;;;;28.92;19.27;;;;;;;7.78;44.73;101149.41;5000978;28;20108;-73
2022/03/24 05:52:55;;;;;;;29.23;19.45;;;;;;;8.36;43.94;101149.81;4999171;28;20034;-73
2022/03/24 05:55:23;;;;;;;35.83;21.15;;;;;;;8.99;42.35;101135.34;4999300;28;20451;-73
2022/03/24 05:57:49;;;;;;;33.78;19.73;;;;;;;9.18;41.70;101144.44;4999015;28;20596;-73
2022/03/24 06:00:15;;;;;;;31.50;19.48;;;;;;;9.66;41.29;101162.69;4999404;28;20482;-72
2022/03/24 06:02:41;;;;;;;30.92;18.95;;;;;;;9.60;41.44;101123.31;4999485;28;20076;-73
2022/03/24 06:05:12;;;;;;;32.83;19.42;;;;;;;9.18;41.54;101133.97;5000266;28;20054;-73
2022/03/24 06:07:38;;;;;;;32.10;19.30;;;;;;;9.45;41.01;101137.03;4998924;28;23321;-72
2022/03/24 06:10:06;;;;;;;29.00;19.88;;;;;;;9.64;40.43;101151.28;5000308;28;20037;-72
2022/03/24 06:12:31;;;;;;;32.40;19.48;;;;;;;9.63;40.53;101144.31;4999583;28;20549;-73
2022/03/24 06:14:57;;;;;;;31.05;20.10;;;;;;;10.03;39.24;101159.75;4999076;28;20068;-73
2022/03/24 06:17:23;;;;;;;28.77;19.02;;;;;;;9.65;40.28;101155.69;4998481;28;20045;-72
2022/03/24 06:19:49;;;;;;;32.47;22.35;;;;;;;9.47;40.44;101150.16;4999609;28;20054;-72
2022/03/24 06:22:16;;;;;;;32.95;19.33;;;;;;;9.10;41.24;101136.44;4999134;28;20081;-72
2022/03/24 06:24:42;;;;;;;34.15;19.35;;;;;;;9.23;40.91;101129.69;4999808;28;20061;-72
2022/03/24 06:27:08;;;;;;;33.00;18.98;;;;;;;9.69;40.82;101152.28;4999425;28;20568;-72
2022/03/24 06:29:34;;;;;;;33.38;20.70;;;;;;;9.73;40.27;101150.56;4997936;28;20046;-72
2022/03/24 06:32:00;;;;;;;46.15;20.75;;;;;;;9.84;40.03;101137.63;4998716;28;20050;-71
2022/03/24 06:34:25;;;;;;;32.75;19.20;;;;;;;9.84;39.54;101150.75;4992658;28;20485;-72
2022/03/24 06:36:51;;;;;;;25.98;19.33;;;;;;;9.96;39.49;101129.94;4996536;28;20147;-72
2022/03/24 06:39:17;;;;;;;33.65;18.77;;;;;;;10.19;39.56;101166.97;5000316;28;20062;-72
2022/03/24 06:41:43;;;;;;;38.03;19.60;;;;;;;10.18;38.93;101138.97;5000250;28;20568;-72
2022/03/24 06:44:09;;;;;;;29.73;18.80;;;;;;;10.32;39.27;101145.34;4998716;28;20573;-72
2022/03/24 06:46:36;;;;;;;31.27;18.00;;;;;;;10.48;38.74;101142.88;5001825;28;20042;-72
2022/03/24 06:49:03;;;;;;;44.95;20.20;;;;;;;10.59;38.29;101151.78;5001906;28;20049;-72
2022/03/24 06:51:29;;;;;;;32.90;17.92;;;;;;;10.51;38.39;101135.03;5003163;28;20034;-72
2022/03/24 06:53:55;;;;;;;21.30;17.48;;;;;;;10.81;38.39;101142.38;5004629;28;20057;-73
2022/03/24 06:56:21;;;;;;;32.70;18.88;;;;;;;11.02;37.22;101160.09;5002227;28;20039;-72
2022/03/24 06:58:47;;;;;;;25.38;17.63;;;;;;;10.93;36.99;101126.78;5000854;28;20044;-72
2022/03/24 07:01:12;;;;;;;33.38;18.88;;;;;;;10.99;36.58;101118.94;5002439;28;20128;-72
2022/03/24 07:03:38;;;;;;;28.83;18.75;;;;;;;11.28;36.92;101156.84;5002304;28;20044;-72
2022/03/24 07:06:04;;;;;;;31.85;16.67;;;;;;;11.33;36.11;101134.13;5002594;28;20137;-72
2022/03/24 07:08:30;;;;;;;39.88;18.23;;;;;;;11.29;36.45;101121.84;5001833;28;20489;-72
2022/03/24 07:10:55;;;;;;;25.92;17.55;;;;;;;11.55;36.32;101151.84;5002562;28;20046;-72
2022/03/24 07:13:21;;;;;;;30.90;17.60;;;;;;;11.75;34.95;101138.84;5032535;28;20049;-72
2022/03/24 07:15:47;;;;;;;39.05;19.30;;;;;;;11.83;33.83;101121.38;5002395;28;20561;-72
2022/03/24 07:18:13;;;;;;;22.35;15.85;;;;;;;11.92;33.23;101120.59;5002085;28;20046;-72
2022/03/24 07:20:39;;;;;;;31.20;15.60;;;;;;;11.74;33.13;101115.19;5001426;28;20042;-71
2022/03/24 07:23:06;;;;;;;20.48;15.02;;;;;;;11.75;33.79;101122.19;5004458;28;20049;-71
2022/03/24 07:25:33;;;;;;;29.20;15.63;;;;;;;12.30;32.27;101145.34;5005490;28;20060;-72
2022/03/24 07:27:59;;;;;;;31.60;16.42;;;;;;;12.24;32.11;101118.13;5002009;28;20048;-70
2022/03/24 07:30:26;;;;;;;29.08;17.60;;;;;;;12.55;32.04;101105.06;5002124;28;20033;-71
2022/03/24 07:32:54;;;;;;;27.05;17.73;;;;;;;12.78;31.91;101115.69;5002875;28;20060;-73
2022/03/24 07:35:21;;;;;;;22.77;13.77;;;;;;;12.70;31.98;101117.41;5001262;28;20061;-70
2022/03/24 07:37:47;;;;;;;33.13;16.20;;;;;;;12.79;31.52;101143.75;5003146;28;20041;-77
2022/03/24 07:40:18;;;;;;;20.35;15.55;;;;;;;12.86;31.33;101131.50;5001329;28;20441;-73
2022/03/24 07:42:52;;;;;;;26.13;15.27;;;;;;;12.99;31.28;101122.72;4987436;28;20525;-75
2022/03/24 07:45:18;;;;;;;28.92;15.23;;;;;;;13.20;30.97;101131.53;5001259;28;20580;-78
2022/03/24 07:48:09;;;;;;;30.10;14.52;;;;;;;13.25;30.83;101145.56;4984998;28;20038;-76
2022/03/24 07:50:37;;;;;;;31.30;16.48;;;;;;;13.26;30.63;101119.22;5003824;28;20056;-76
2022/03/24 07:53:34;;;;;;;28.27;15.68;;;;;;;13.52;30.53;101116.63;5001264;28;20090;-83
2022/03/24 07:56:01;;;;;;;23.00;13.73;;;;;;;13.71;30.23;101116.59;5004013;28;20042;-82
2022/03/24 07:58:27;;;;;;;25.92;14.50;;;;;;;13.52;30.16;101108.72;5002343;28;20302;-85
2022/03/24 08:00:57;;;;;;;20.67;14.52;;;;;;;13.64;30.10;101094.63;5004579;28;20097;-82
2022/03/24 08:03:22;;;;;;;26.42;14.30;;;;;;;13.77;30.21;101095.50;5005791;28;20030;-80
2022/03/24 08:05:49;;;;;;;23.15;13.93;;;;;;;14.10;29.66;101120.91;5002600;28;20056;-84
2022/03/24 08:08:14;;;;;;;23.08;13.18;;;;;;;14.28;29.27;101119.97;5003175;28;20056;-74
2022/03/24 08:10:42;;;;;;;29.92;14.27;;;;;;;14.26;28.74;101105.03;5001158;28;20034;-80
2022/03/24 08:13:10;;;;;;;22.98;12.85;;;;;;;14.39;28.95;101090.88;4998576;28;20046;-71
2022/03/24 08:15:37;;;;;;;19.42;13.70;;;;;;;14.74;28.80;101130.34;5000838;28;20045;-72
2022/03/24 08:18:04;;;;;;;41.67;14.38;;;;;;;14.53;29.42;101104.88;5000422;28;20482;-73
2022/03/24 08:20:30;;;;;;;25.80;13.02;;;;;;;14.67;28.80;101109.25;4999039;28;20219;-68
2022/03/24 08:22:56;;;;;;;17.23;11.80;;;;;;;14.81;28.24;101099.47;5001595;28;20091;-73
2022/03/24 08:25:21;;;;;;;18.73;12.48;;;;;;;14.96;27.66;101114.34;5002132;28;20071;-73
2022/03/24 08:27:47;;;;;;;22.67;13.52;;;;;;;15.05;28.23;101082.56;5001416;28;20551;-72
2022/03/24 08:30:13;;;;;;;21.65;13.35;;;;;;;14.80;29.39;101086.28;5000333;28;20037;-73
2022/03/24 08:32:40;;;;;;;15.80;11.45;;;;;;;15.08;28.35;101086.97;4999789;28;20073;-69
2022/03/24 08:35:06;;;;;;;23.95;11.40;;;;;;;15.35;27.95;101068.22;4999081;28;20391;-69
2022/03/24 08:37:32;;;;;;;29.63;12.52;;;;;;;15.70;28.28;101096.13;5000118;28;20045;-69
2022/03/24 08:39:57;;;;;;;21.65;12.23;;;;;;;15.55;28.39;101067.16;5000655;28;20042;-69
2022/03/24 08:42:23;;;;;;;40.90;12.93;;;;;;;16.00;27.93;101081.69;5000831;28;20117;-69
2022/03/24 08:44:49;;;;;;;19.42;11.82;;;;;;;15.85;26.78;101065.09;5002741;28;20390;-71
2022/03/24 08:47:15;;;;;;;20.00;12.40;;;;;;;15.89;27.25;101051.81;5002983;28;20072;-71
2022/03/24 08:49:41;;;;;;;20.35;12.90;;;;;;;15.98;27.91;101087.91;5000421;28;20071;-73
2022/03/24 08:52:07;;;;;;;19.17;13.25;;;;;;;15.76;26.66;101053.75;5000899;28;20467;-71
2022/03/24 08:54:33;;;;;;;22.67;11.93;;;;;;;15.74;27.36;101063.47;4998724;28;20507;-72
2022/03/24 08:56:58;;;;;;;24.98;10.68;;;;;;;16.17;25.76;101064.72;5000899;28;20111;-71
2022/03/24 08:59:24;;;;;;;18.60;8.57;;;;;;;16.18;24.94;101067.38;5000747;28;20038;-71
2022/03/24 09:01:49;;;;;;;13.18;7.88;;;;;;;16.30;25.12;101068.97;5000119;28;20041;-71
2022/03/24 09:04:16;;;;;;;19.63;9.50;;;;;;;16.00;25.19;101031.41;5002861;28;20095;-72
2022/03/24 09:06:42;;;;;;;14.75;8.27;;;;;;;16.30;24.74;101038.97;5003406;28;20458;-71
2022/03/24 09:09:09;;;;;;;14.52;9.63;;;;;;;16.17;25.61;101039.13;5001597;28;20242;-71
2022/03/24 09:11:36;;;;;;;16.13;9.00;;;;;;;16.17;24.77;101059.44;5000492;28;20034;-71
2022/03/24 09:14:01;;;;;;;14.13;8.00;;;;;;;16.29;24.70;101043.38;5003549;28;20038;-72
2022/03/24 09:16:27;;;;;;;27.08;9.70;;;;;;;16.77;24.27;101018.84;5000415;28;20692;-72
2022/03/24 09:18:53;;;;;;;19.45;10.90;;;;;;;17.02;24.00;101037.91;5000821;28;20448;-72
2022/03/24 09:21:19;;;;;;;17.00;9.35;;;;;;;16.45;24.65;101036.09;5000463;28;20026;-71
2022/03/24 09:23:45;;;;;;;18.15;9.15;;;;;;;16.24;25.05;101013.44;5010763;28;20049;-73
2022/03/24 09:26:12;;;;;;;15.95;10.20;;;;;;;16.43;24.62;101025.50;5002020;28;20042;-71
2022/03/24 09:28:37;;;;;;;26.17;11.45;;;;;;;16.45;24.71;101021.06;5002047;28;20107;-72
2022/03/24 09:31:03;;;;;;;30.25;10.93;;;;;;;16.69;24.01;101040.16;4997969;28;20029;-70
2022/03/24 09:33:28;;;;;;;22.08;12.05;;;;;;;16.73;23.89;101033.03;5027297;28;20029;-69
2022/03/24 09:35:54;;;;;;;21.17;11.40;;;;;;;17.06;23.61;101013.97;4999183;28;20070;-70
2022/03/24 09:38:20;;;;;;;31.65;12.63;;;;;;;17.24;23.52;101015.44;4999996;28;20037;-70
2022/03/24 09:40:46;;;;;;;20.02;11.07;;;;;;;17.36;22.24;101010.81;5002361;28;20465;-70
2022/03/24 09:43:15;;;;;;;18.85;11.02;;;;;;;17.06;22.37;101000.69;5000562;28;20038;-70
2022/03/24 09:45:42;;;;;;;23.02;12.05;;;;;;;17.03;22.48;100997.25;5002751;28;20026;-71
2022/03/24 09:48:10;;;;;;;18.48;9.57;;;;;;;17.11;22.65;101005.06;5001024;28;20058;-71
2022/03/24 09:50:38;;;;;;;20.20;10.13;;;;;;;17.02;22.49;100983.13;5000173;28;20624;-70
2022/03/24 09:53:05;;;;;;;14.65;9.57;;;;;;;17.36;19.54;100973.66;5002235;28;20049;-71
2022/03/24 09:55:32;;;;;;;23.27;10.23;;;;;;;17.54;20.35;101013.13;5001621;28;20482;-71
2022/03/24 09:58:02;;;;;;;24.23;10.05;;;;;;;17.44;20.96;100996.50;5001003;28;20159;-72
2022/03/24 10:00:27;;;;;;;16.88;9.27;;;;;;;17.34;20.19;101010.81;5000581;28;20025;-72
2022/03/24 10:03:07;;;;;;;18.58;9.88;;;;;;;17.49;19.95;100978.72;5001588;28;20409;-72
2022/03/24 10:05:32;;;;;;;29.90;9.70;;;;;;;17.41;19.93;100977.09;4998996;28;20124;-71
2022/03/24 10:08:08;;;;;;;25.92;9.40;;;;;;;17.63;19.58;100997.03;5000750;28;20124;-72
2022/03/24 10:10:35;;;;;;;19.88;8.82;;;;;;;17.47;18.51;100967.25;5000726;28;20030;-71
2022/03/24 10:13:02;;;;;;;12.80;7.95;;;;;;;17.44;18.66;100982.34;5001236;28;20025;-71
2022/03/24 10:15:29;;;;;;;14.77;9.05;;;;;;;17.76;18.61;100975.53;5002211;28;20090;-71
2022/03/24 10:17:58;;;;;;;10.07;7.15;;;;;;;17.90;19.15;100963.75;4983069;28;20092;-72
2022/03/24 10:20:28;;;;;;;16.10;9.55;;;;;;;18.19;19.05;100964.91;5002577;28;20154;-70
2022/03/24 10:22:53;;;;;;;23.65;11.32;;;;;;;18.69;18.77;100962.81;5000954;28;20477;-71
2022/03/24 10:25:26;;;;;;;13.55;8.23;;;;;;;18.73;18.73;100950.31;5001551;28;20042;-73
2022/03/24 10:28:13;;;;;;;24.58;8.15;;;;;;;18.83;18.05;100933.25;5003219;28;20053;-73
2022/03/24 10:30:51;;;;;;;18.90;7.70;;;;;;;19.15;17.98;100967.00;5034340;28;20050;-71
2022/03/24 10:33:36;;;;;;;16.95;7.82;;;;;;;18.56;17.34;100953.38;5001457;28;20069;-76
2022/03/24 10:36:12;;;;;;;9.55;6.38;;;;;;;18.14;18.02;100930.47;4999571;28;20096;-77
2022/03/24 10:38:52;;;;;;;15.68;7.57;;;;;;;18.55;18.45;100946.34;5004471;28;20037;-76
2022/03/24 10:41:18;;;;;;;9.30;6.32;;;;;;;18.85;18.24;100941.22;5004330;28;20038;-76
2022/03/24 10:43:45;;;;;;;12.43;7.05;;;;;;;19.33;17.51;100952.31;5004497;28;20100;-73
2022/03/24 10:46:14;;;;;;;10.85;7.50;;;;;;;19.15;17.71;100944.81;5006625;28;20033;-72
2022/03/24 10:48:39;;;;;;;8.50;6.25;;;;;;;19.24;16.76;100949.88;5006931;28;20041;-72
2022/03/24 10:51:05;;;;;;;9.30;6.45;;;;;;;19.66;16.65;100952.25;4988346;28;20137;-72
2022/03/24 10:53:42;;;;;;;11.85;6.43;;;;;;;20.25;17.73;100932.75;5005063;28;20037;-73
2022/03/24 10:56:25;;;;;;;13.07;6.03;;;;;;;20.63;17.54;100923.53;5006161;28;20034;-73
2022/03/24 10:58:56;;;;;;;13.48;7.93;;;;;;;20.15;17.88;100928.63;5006081;28;20045;-72
2022/03/24 11:01:26;;;;;;;12.50;7.20;;;;;;;21.15;18.19;100922.66;5005741;28;20072;-73
2022/03/24 11:03:52;;;;;;;12.23;7.15;;;;;;;20.60;16.48;100894.34;5005011;28;20034;-73
2022/03/24 11:06:24;;;;;;;9.60;6.40;;;;;;;20.41;16.78;100904.66;5006908;28;20036;-73
2022/03/24 11:09:00;;;;;;;9.90;7.28;;;;;;;21.06;17.05;100889.16;5004808;28;20045;-73
2022/03/24 11:11:27;;;;;;;12.15;7.85;;;;;;;21.79;16.69;100890.91;5005294;28;20042;-72
2022/03/24 11:14:02;;;;;;;12.70;7.68;;;;;;;22.06;16.35;100910.34;5002944;28;20051;-72
2022/03/24 11:16:33;;;;;;;18.17;7.97;;;;;;;22.15;16.20;100914.47;5005675;28;20038;-73